createdAt,value
2022-10-18T00:00:52.044Z,14.73
2022-10-18T00:03:19.930Z,14.45
2022-10-18T00:05:49.407Z,14.38
2022-10-18T00:08:17.263Z,14.10
2022-10-18T00:10:45.116Z,14.00
2022-10-18T00:13:13.119Z,14.65
2022-10-18T00:15:41.106Z,14.25
2022-10-18T00:18:08.944Z,13.73
2022-10-18T00:20:36.810Z,13.70
2022-10-18T00:23:06.000Z,14.00
2022-10-18T00:25:33.981Z,14.38
2022-10-18T00:28:01.828Z,13.32
2022-10-18T00:30:29.732Z,13.45
2022-10-18T00:32:57.717Z,13.82
2022-10-18T00:35:26.005Z,13.88
2022-10-18T00:37:53.980Z,13.73
2022-10-18T00:40:23.165Z,13.50
2022-10-18T00:42:51.077Z,13.15
2022-10-18T00:45:21.365Z,13.40
2022-10-18T00:47:52.813Z,12.70
2022-10-18T00:50:21.083Z,13.02
2022-10-18T00:52:51.803Z,12.65
2022-10-18T00:55:19.828Z,13.18
2022-10-18T00:57:49.149Z,13.68
2022-10-18T01:00:17.022Z,13.18
2022-10-18T01:02:45.532Z,12.90
2022-10-18T01:05:13.869Z,12.63
2022-10-18T01:07:55.781Z,12.98
2022-10-18T01:10:28.818Z,12.60
2022-10-18T01:13:16.555Z,12.45
2022-10-18T01:15:48.360Z,12.55
2022-10-18T01:18:18.901Z,11.95
2022-10-18T01:21:12.446Z,12.10
2022-10-18T01:24:04.369Z,11.98
2022-10-18T01:26:41.845Z,12.57
2022-10-18T01:29:16.439Z,12.38
2022-10-18T01:31:46.432Z,11.85
2022-10-18T01:34:15.157Z,11.90
2022-10-18T01:36:43.796Z,11.77
2022-10-18T01:39:15.808Z,11.82
2022-10-18T01:41:44.377Z,12.20
2022-10-18T01:44:13.671Z,11.73
2022-10-18T01:46:41.560Z,11.20
2022-10-18T01:49:10.765Z,11.50
2022-10-18T01:51:38.713Z,11.38
2022-10-18T01:54:06.549Z,11.43
2022-10-18T01:56:38.136Z,12.02
2022-10-18T01:59:39.124Z,12.00
2022-10-18T02:02:10.614Z,10.65
2022-10-18T02:04:42.409Z,11.98
2022-10-18T02:07:16.020Z,11.02
2022-10-18T02:09:46.202Z,11.38
2022-10-18T02:12:14.063Z,11.25
2022-10-18T02:14:41.926Z,10.77
2022-10-18T02:17:10.189Z,10.55
2022-10-18T02:19:40.855Z,11.50
2022-10-18T02:22:08.887Z,11.65
2022-10-18T02:24:37.827Z,10.75
2022-10-18T02:27:05.739Z,11.15
2022-10-18T02:29:33.605Z,10.57
2022-10-18T02:32:05.019Z,11.25
2022-10-18T02:34:35.075Z,11.27
2022-10-18T02:37:04.277Z,11.35
2022-10-18T02:39:34.043Z,10.50
2022-10-18T02:42:01.926Z,10.55
2022-10-18T02:44:29.799Z,9.73
2022-10-18T02:46:57.640Z,10.55
2022-10-18T02:49:25.669Z,10.23
2022-10-18T02:51:53.586Z,10.68
2022-10-18T02:54:23.097Z,9.75
2022-10-18T02:56:50.945Z,10.35
2022-10-18T02:59:18.788Z,10.02
2022-10-18T03:01:46.690Z,9.80
2022-10-18T03:04:14.796Z,10.05
2022-10-18T03:06:42.763Z,10.02
2022-10-18T03:09:10.751Z,9.75
2022-10-18T03:11:39.927Z,9.55
2022-10-18T03:14:07.770Z,9.73
2022-10-18T03:16:35.680Z,9.85
2022-10-18T03:19:03.625Z,9.23
2022-10-18T03:21:31.509Z,10.40
2022-10-18T03:23:59.743Z,9.77
2022-10-18T03:26:27.590Z,9.18
2022-10-18T03:28:56.919Z,9.40
2022-10-18T03:31:24.874Z,9.65
2022-10-18T03:33:52.759Z,9.82
2022-10-18T03:36:20.649Z,9.95
2022-10-18T03:38:48.497Z,9.55
2022-10-18T03:41:16.353Z,9.30
2022-10-18T03:43:44.198Z,10.05
2022-10-18T03:46:13.418Z,9.63
2022-10-18T03:48:41.334Z,9.90
2022-10-18T03:51:09.211Z,9.20
2022-10-18T03:53:37.042Z,9.02
2022-10-18T03:56:05.038Z,9.57
2022-10-18T04:01:01.661Z,8.95
2022-10-18T04:03:30.845Z,9.23
2022-10-18T04:06:00.591Z,9.55
2022-10-18T04:08:28.467Z,8.73
2022-10-18T04:10:56.302Z,9.13
2022-10-18T04:13:24.164Z,8.82
2022-10-18T04:15:52.023Z,8.93
2022-10-18T04:18:19.883Z,8.90
2022-10-18T04:20:49.091Z,9.02
2022-10-18T04:23:16.966Z,8.70
2022-10-18T04:25:44.820Z,8.77
2022-10-18T04:28:12.676Z,8.38
2022-10-18T04:30:40.523Z,8.40
2022-10-18T04:33:08.344Z,8.20
2022-10-18T04:35:36.357Z,8.50
2022-10-18T04:38:05.589Z,8.52
2022-10-18T04:40:33.461Z,8.60
2022-10-18T04:43:01.357Z,8.27
2022-10-18T04:45:29.198Z,8.23
2022-10-18T04:47:57.050Z,8.25
2022-10-18T04:50:24.915Z,8.50
2022-10-18T04:52:53.464Z,8.35
2022-10-18T04:55:22.665Z,8.55
2022-10-18T04:57:50.509Z,8.30
2022-10-18T05:00:18.659Z,7.78
2022-10-18T05:02:46.561Z,7.93
2022-10-18T05:05:14.507Z,8.27
2022-10-18T05:07:42.391Z,8.27
2022-10-18T05:10:10.758Z,8.00
2022-10-18T05:12:39.954Z,8.32
2022-10-18T05:15:08.443Z,7.72
2022-10-18T05:17:36.295Z,7.93
2022-10-18T05:20:04.466Z,8.00
2022-10-18T05:22:32.580Z,8.10
2022-10-18T05:25:00.589Z,7.78
2022-10-18T05:27:29.354Z,8.13
2022-10-18T05:30:01.243Z,8.38
2022-10-18T05:32:32.621Z,8.35
2022-10-18T05:35:00.863Z,8.80
2022-10-18T05:37:28.763Z,9.30
2022-10-18T05:39:56.639Z,10.80
2022-10-18T05:42:24.520Z,12.00
2022-10-18T05:44:52.385Z,11.40
2022-10-18T05:47:21.649Z,11.50
2022-10-18T05:49:49.568Z,12.00
2022-10-18T05:52:18.077Z,12.32
2022-10-18T05:54:45.902Z,11.90
2022-10-18T05:57:13.827Z,12.18
2022-10-18T05:59:41.686Z,11.95
2022-10-18T06:02:10.446Z,11.45
2022-10-18T06:04:39.753Z,12.18
2022-10-18T06:07:11.033Z,12.07
2022-10-18T06:09:39.060Z,11.00
2022-10-18T06:12:08.950Z,10.50
2022-10-18T06:14:37.250Z,10.93
2022-10-18T06:17:05.372Z,10.93
2022-10-18T06:19:33.629Z,10.73
2022-10-18T06:22:02.849Z,11.20
2022-10-18T06:24:30.733Z,11.10
2022-10-18T06:26:58.775Z,10.40
2022-10-18T06:29:26.654Z,10.60
2022-10-18T06:31:54.510Z,10.63
2022-10-18T06:34:22.623Z,10.13
2022-10-18T06:36:52.103Z,10.25
2022-10-18T06:39:24.254Z,9.68
2022-10-18T06:41:52.112Z,10.35
2022-10-18T06:44:20.704Z,10.13
2022-10-18T06:46:49.394Z,9.85
2022-10-18T06:49:19.137Z,10.30
2022-10-18T06:51:47.370Z,10.35
2022-10-18T06:54:18.456Z,9.00
2022-10-18T06:56:48.213Z,9.98
2022-10-18T06:59:16.276Z,9.30
2022-10-18T07:01:44.488Z,9.50
2022-10-18T07:04:12.411Z,9.20
2022-10-18T07:06:40.300Z,9.65
2022-10-18T07:09:08.238Z,8.75
2022-10-18T07:11:36.108Z,9.27
2022-10-18T07:14:05.349Z,9.05
2022-10-18T07:16:33.542Z,9.07
2022-10-18T07:19:01.574Z,9.10
2022-10-18T07:21:29.853Z,8.77
2022-10-18T07:23:57.774Z,8.80
2022-10-18T07:26:27.176Z,9.45
2022-10-18T07:28:57.737Z,9.20
2022-10-18T07:31:27.362Z,8.63
2022-10-18T07:33:55.236Z,8.50
2022-10-18T07:36:23.432Z,8.70
2022-10-18T07:38:52.061Z,8.60
2022-10-18T07:41:20.534Z,8.63
2022-10-18T07:43:50.721Z,8.70
2022-10-18T07:46:18.828Z,8.35
2022-10-18T07:48:48.071Z,8.70
2022-10-18T07:51:16.072Z,8.50
2022-10-18T07:53:43.949Z,8.15
2022-10-18T07:56:16.145Z,8.23
2022-10-18T07:58:44.256Z,8.18
2022-10-18T08:01:12.171Z,8.30
2022-10-18T08:03:40.207Z,8.23
2022-10-18T08:06:10.844Z,8.18
2022-10-18T08:08:39.082Z,7.80
2022-10-18T08:11:08.056Z,7.90
2022-10-18T08:13:35.935Z,7.68
2022-10-18T08:16:04.473Z,8.35
2022-10-18T08:18:32.352Z,7.95
2022-10-18T08:21:01.131Z,8.13
2022-10-18T08:23:30.411Z,7.55
2022-10-18T08:25:59.132Z,8.30
2022-10-18T08:28:27.168Z,8.15
2022-10-18T08:30:55.049Z,8.23
2022-10-18T08:33:22.953Z,8.18
2022-10-18T08:35:56.248Z,8.18
2022-10-18T08:38:24.222Z,8.10
2022-10-18T08:40:53.503Z,7.93
2022-10-18T08:43:26.871Z,8.23
2022-10-18T08:45:54.783Z,8.07
2022-10-18T08:48:24.555Z,7.90
2022-10-18T08:50:52.410Z,7.90
2022-10-18T08:53:21.847Z,7.63
2022-10-18T08:55:52.525Z,8.57
2022-10-18T08:58:22.959Z,7.95
2022-10-18T09:00:56.005Z,7.82
2022-10-18T09:03:31.777Z,7.68
2022-10-18T09:06:04.207Z,7.30
2022-10-18T09:08:55.250Z,7.82
2022-10-18T09:11:28.437Z,8.18
2022-10-18T09:14:13.891Z,8.32
2022-10-18T09:16:45.673Z,7.72
2022-10-18T09:19:18.246Z,8.50
2022-10-18T09:21:49.497Z,15.10
2022-10-18T09:24:23.035Z,11.02
2022-10-18T09:26:51.276Z,11.48
2022-10-18T09:29:31.440Z,11.80
2022-10-18T09:32:03.728Z,10.75
2022-10-18T09:34:32.978Z,10.70
2022-10-18T09:37:00.906Z,11.85
2022-10-18T09:39:30.807Z,11.57
2022-10-18T09:42:00.122Z,11.23
2022-10-18T09:44:30.246Z,10.88
2022-10-18T09:47:00.154Z,10.25
2022-10-18T09:49:29.345Z,10.82
2022-10-18T09:51:57.191Z,10.32
2022-10-18T09:54:27.510Z,9.50
2022-10-18T09:56:58.205Z,9.82
2022-10-18T09:59:36.768Z,9.98
2022-10-18T10:02:04.869Z,9.85
2022-10-18T10:04:32.875Z,9.45
2022-10-18T10:07:01.733Z,9.18
2022-10-18T10:09:30.638Z,9.57
2022-10-18T10:11:58.626Z,9.60
2022-10-18T10:14:27.463Z,9.32
2022-10-18T10:16:57.805Z,9.93
2022-10-18T10:19:28.555Z,9.57
2022-10-18T10:21:59.696Z,9.38
2022-10-18T10:24:33.669Z,9.75
2022-10-18T10:27:02.876Z,9.30
2022-10-18T10:30:07.307Z,8.98
2022-10-18T10:32:48.142Z,10.23
2022-10-18T10:35:41.307Z,9.13
2022-10-18T10:38:24.827Z,9.77
2022-10-18T10:40:52.817Z,9.80
2022-10-18T10:43:39.742Z,9.85
2022-10-18T10:46:08.725Z,9.57
2022-10-18T10:48:42.559Z,9.95
2022-10-18T10:51:11.429Z,10.65
2022-10-18T10:53:45.072Z,9.68
2022-10-18T10:56:18.720Z,9.98
2022-10-18T10:58:46.731Z,10.32
2022-10-18T11:01:26.143Z,11.63
2022-10-18T11:03:56.750Z,11.15
2022-10-18T11:06:50.072Z,11.50
2022-10-18T11:09:29.083Z,12.63
2022-10-18T11:12:09.331Z,12.70
2022-10-18T11:14:38.574Z,13.38
2022-10-18T11:17:15.916Z,13.90
2022-10-18T11:19:50.556Z,12.55
2022-10-18T11:22:20.580Z,13.48
2022-10-18T11:24:49.049Z,12.88
2022-10-18T11:27:20.565Z,13.25
2022-10-18T11:29:55.537Z,13.02
2022-10-18T11:32:26.206Z,13.43
2022-10-18T11:35:04.938Z,13.27
2022-10-18T11:37:53.087Z,12.98
2022-10-18T11:40:32.135Z,12.82
2022-10-18T11:43:02.831Z,13.48
2022-10-18T11:45:33.652Z,13.27
2022-10-18T11:48:06.210Z,13.15
2022-10-18T11:50:37.828Z,12.82
2022-10-18T11:53:10.518Z,13.05
2022-10-18T11:55:46.810Z,13.20
2022-10-18T11:58:24.276Z,13.65
2022-10-18T12:00:53.430Z,12.93
2022-10-18T12:03:41.929Z,12.27
2022-10-18T12:06:14.829Z,12.50
2022-10-18T12:08:43.748Z,13.20
2022-10-18T12:11:15.252Z,13.23
2022-10-18T12:13:47.521Z,12.80
2022-10-18T12:16:15.427Z,11.88
2022-10-18T12:18:56.765Z,12.57
2022-10-18T12:21:26.951Z,12.00
2022-10-18T12:23:56.717Z,11.55
2022-10-18T12:26:24.617Z,11.10
2022-10-18T12:28:59.167Z,10.73
2022-10-18T12:31:30.103Z,10.68
2022-10-18T12:33:59.842Z,10.52
2022-10-18T12:36:49.717Z,9.93
2022-10-18T12:39:28.273Z,10.20
2022-10-18T12:42:05.647Z,9.48
2022-10-18T12:44:34.223Z,9.55
2022-10-18T12:47:02.981Z,9.63
2022-10-18T12:49:32.087Z,9.30
2022-10-18T12:52:02.626Z,9.50
2022-10-18T12:54:31.131Z,9.23
2022-10-18T12:56:59.149Z,8.85
2022-10-18T12:59:47.742Z,9.43
2022-10-18T13:02:29.257Z,9.13
2022-10-18T13:07:44.685Z,8.73
2022-10-18T13:10:39.526Z,8.95
2022-10-18T13:13:46.285Z,8.23
2022-10-18T13:16:26.976Z,8.73
2022-10-18T13:18:55.665Z,8.88
2022-10-18T13:21:28.871Z,8.93
2022-10-18T13:24:14.599Z,8.68
2022-10-18T13:26:45.706Z,9.00
2022-10-18T13:29:26.015Z,9.40
2022-10-18T13:31:55.473Z,8.93
2022-10-18T13:34:28.536Z,9.20
2022-10-18T13:36:58.416Z,9.13
2022-10-18T13:39:27.624Z,9.30
2022-10-18T13:42:20.628Z,9.20
2022-10-18T13:44:48.489Z,9.40
2022-10-18T13:47:17.152Z,9.38
2022-10-18T13:50:04.235Z,9.07
2022-10-18T13:52:38.798Z,9.25
2022-10-18T13:55:19.178Z,9.20
2022-10-18T13:57:50.177Z,9.50
2022-10-18T14:00:36.859Z,9.35
2022-10-18T14:03:51.515Z,9.32
2022-10-18T14:06:10.319Z,9.05
2022-10-18T14:08:39.595Z,8.90
2022-10-18T14:11:13.983Z,9.10
2022-10-18T14:13:44.479Z,9.52
2022-10-18T14:16:20.943Z,9.13
2022-10-18T14:18:48.856Z,9.48
2022-10-18T14:21:21.764Z,8.90
2022-10-18T14:23:50.192Z,9.27
2022-10-18T14:26:20.830Z,9.52
2022-10-18T14:29:03.608Z,9.80
2022-10-18T14:31:31.541Z,9.52
2022-10-18T14:33:59.527Z,9.20
2022-10-18T14:36:28.106Z,8.85
2022-10-18T14:38:57.090Z,8.82
2022-10-18T14:41:26.947Z,9.68
2022-10-18T14:44:13.058Z,9.05
2022-10-18T14:46:42.980Z,9.38
2022-10-18T14:49:11.772Z,8.82
2022-10-18T14:51:40.521Z,9.00
2022-10-18T14:54:08.937Z,9.52
2022-10-18T14:56:40.306Z,9.35
2022-10-18T14:59:12.646Z,9.07
2022-10-18T15:01:40.558Z,9.30
2022-10-18T15:04:10.735Z,8.57
2022-10-18T15:06:42.566Z,9.23
2022-10-18T15:09:10.438Z,9.27
2022-10-18T15:11:40.194Z,9.63
2022-10-18T15:14:09.028Z,8.73
2022-10-18T15:16:38.352Z,9.15
2022-10-18T15:19:07.221Z,9.25
2022-10-18T15:21:35.992Z,9.02
2022-10-18T15:24:28.948Z,9.10
2022-10-18T15:27:01.149Z,9.05
2022-10-18T15:29:33.196Z,8.80
2022-10-18T15:32:06.502Z,8.45
2022-10-18T15:34:34.402Z,9.65
2022-10-18T15:37:02.253Z,9.55
2022-10-18T15:39:31.253Z,9.07
2022-10-18T15:42:00.763Z,8.95
2022-10-18T15:44:31.654Z,9.85
2022-10-18T15:47:11.224Z,9.10
2022-10-18T15:49:51.927Z,8.95
2022-10-18T15:52:38.082Z,8.50
2022-10-18T15:55:46.769Z,8.38
2022-10-18T15:58:18.497Z,8.63
2022-10-18T16:00:46.687Z,9.07
2022-10-18T16:03:14.847Z,8.90
2022-10-18T16:05:42.772Z,8.48
2022-10-18T16:08:22.309Z,9.40
2022-10-18T16:10:50.306Z,8.23
2022-10-18T16:13:19.568Z,8.43
2022-10-18T16:15:47.476Z,8.90
2022-10-18T16:18:16.752Z,9.00
2022-10-18T16:20:44.614Z,8.35
2022-10-18T16:23:17.359Z,8.88
2022-10-18T16:25:45.451Z,7.97
2022-10-18T16:28:15.318Z,8.32
2022-10-18T16:30:48.716Z,8.18
2022-10-18T16:33:21.456Z,8.35
2022-10-18T16:35:51.867Z,8.43
2022-10-18T16:38:32.780Z,8.52
2022-10-18T16:41:03.986Z,8.25
2022-10-18T16:43:32.246Z,8.68
2022-10-18T16:46:01.779Z,8.30
2022-10-18T16:48:34.866Z,8.32
2022-10-18T16:51:06.327Z,7.90
2022-10-18T16:53:34.425Z,8.13
2022-10-18T16:56:03.139Z,8.15
2022-10-18T16:58:32.292Z,8.13
2022-10-18T17:01:04.058Z,7.72
2022-10-18T17:03:34.693Z,8.07
2022-10-18T17:06:02.636Z,8.35
2022-10-18T17:08:30.813Z,8.07
2022-10-18T17:10:59.465Z,8.00
2022-10-18T17:13:27.513Z,7.93
2022-10-18T17:15:55.386Z,7.75
2022-10-18T17:18:26.361Z,7.38
2022-10-18T17:20:54.439Z,7.90
2022-10-18T17:23:22.384Z,7.97
2022-10-18T17:26:05.058Z,7.78
2022-10-18T17:28:35.161Z,7.93
2022-10-18T17:31:03.156Z,7.72
2022-10-18T17:33:32.401Z,7.60
2022-10-18T17:36:00.371Z,8.05
2022-10-18T17:38:28.291Z,7.80
2022-10-18T17:40:57.115Z,7.53
2022-10-18T17:43:26.043Z,7.65
2022-10-18T17:45:55.961Z,7.50
2022-10-18T17:48:24.525Z,8.18
2022-10-18T17:50:53.849Z,7.22
2022-10-18T17:53:23.046Z,7.35
2022-10-18T17:55:51.280Z,7.93
2022-10-18T17:58:19.199Z,7.22
2022-10-18T18:00:47.147Z,7.45
2022-10-18T18:03:15.050Z,7.43
2022-10-18T18:05:42.982Z,7.53
2022-10-18T18:08:12.256Z,7.63
2022-10-18T18:10:40.206Z,7.57
2022-10-18T18:13:08.139Z,7.20
2022-10-18T18:15:36.039Z,7.10
2022-10-18T18:18:03.987Z,7.40
2022-10-18T18:20:33.027Z,7.38
2022-10-18T18:23:00.946Z,6.80
2022-10-18T18:25:30.414Z,7.47
2022-10-18T18:27:58.274Z,7.45
2022-10-18T18:30:26.135Z,6.57
2022-10-18T18:32:54.254Z,6.88
2022-10-18T18:35:22.215Z,7.22
2022-10-18T18:37:51.444Z,7.00
2022-10-18T18:40:19.544Z,7.20
2022-10-18T18:43:12.122Z,7.15
2022-10-18T18:45:36.739Z,7.30
2022-10-18T18:48:04.842Z,6.82
2022-10-18T18:50:36.119Z,6.78
2022-10-18T18:53:04.118Z,7.32
2022-10-18T18:55:32.822Z,6.80
2022-10-18T18:58:02.050Z,6.78
2022-10-18T19:00:29.911Z,6.60
2022-10-18T19:02:57.802Z,7.15
2022-10-18T19:05:28.173Z,6.70
2022-10-18T19:07:56.069Z,6.22
2022-10-18T19:10:23.958Z,6.78
2022-10-18T19:12:52.013Z,6.68
2022-10-18T19:15:21.351Z,6.45
2022-10-18T19:17:49.284Z,6.72
2022-10-18T19:20:17.714Z,6.47
2022-10-18T19:22:45.732Z,6.60
2022-10-18T19:25:13.751Z,6.35
2022-10-18T19:27:41.709Z,6.60
2022-10-18T19:30:10.576Z,6.07
2022-10-18T19:32:39.757Z,5.70
2022-10-18T19:35:08.095Z,6.45
2022-10-18T19:37:36.187Z,6.57
2022-10-18T19:40:04.410Z,6.15
2022-10-18T19:42:32.574Z,6.30
2022-10-18T19:45:00.819Z,6.15
2022-10-18T19:47:28.725Z,6.25
2022-10-18T19:49:59.130Z,6.13
2022-10-18T19:52:28.357Z,6.20
2022-10-18T19:54:56.577Z,6.28
2022-10-18T19:57:24.429Z,5.55
2022-10-18T19:59:52.266Z,6.00
2022-10-18T20:02:20.103Z,6.05
2022-10-18T20:04:47.985Z,5.90
2022-10-18T20:07:17.181Z,6.00
2022-10-18T20:09:45.114Z,5.95
2022-10-18T20:12:13.069Z,6.72
2022-10-18T20:14:40.945Z,5.95
2022-10-18T20:17:12.032Z,6.13
2022-10-18T20:19:39.937Z,5.88
2022-10-18T20:22:07.802Z,5.93
2022-10-18T20:24:37.024Z,5.65
2022-10-18T20:27:05.152Z,5.97
2022-10-18T20:29:33.303Z,5.63
2022-10-18T20:32:01.149Z,5.65
2022-10-18T20:34:29.150Z,5.35
2022-10-18T20:36:57.018Z,6.15
2022-10-18T20:39:25.005Z,5.18
2022-10-18T20:41:54.230Z,5.68
2022-10-18T20:44:22.644Z,5.50
2022-10-18T20:46:50.528Z,5.97
2022-10-18T20:49:18.440Z,5.38
2022-10-18T20:51:46.341Z,5.00
2022-10-18T20:54:14.223Z,5.28
2022-10-18T20:56:42.178Z,5.30
2022-10-18T20:59:11.564Z,5.40
2022-10-18T21:01:39.796Z,5.28
2022-10-18T21:04:08.856Z,5.20
2022-10-18T21:06:37.411Z,5.25
2022-10-18T21:09:06.471Z,5.18
2022-10-18T21:11:36.317Z,5.22
2022-10-18T21:14:04.213Z,5.30
2022-10-18T21:16:34.375Z,5.18
2022-10-18T21:19:05.769Z,5.20
2022-10-18T21:21:33.689Z,4.65
2022-10-18T21:24:05.312Z,5.20
2022-10-18T21:26:35.838Z,5.07
2022-10-18T21:29:04.312Z,5.05
2022-10-18T21:31:34.824Z,4.93
2022-10-18T21:34:04.053Z,4.90
2022-10-18T21:36:32.994Z,5.10
2022-10-18T21:39:00.856Z,4.95
2022-10-18T21:41:28.685Z,5.22
2022-10-18T21:43:56.604Z,5.07
2022-10-18T21:46:26.206Z,5.15
2022-10-18T21:48:56.108Z,4.82
2022-10-18T21:51:24.998Z,4.90
2022-10-18T21:53:54.276Z,4.88
2022-10-18T21:56:23.027Z,5.20
2022-10-18T21:58:50.929Z,5.30
2022-10-18T22:01:22.813Z,4.85
2022-10-18T22:03:51.811Z,5.20
2022-10-18T22:06:21.336Z,4.72
2022-10-18T22:08:50.018Z,5.20
2022-10-18T22:11:18.259Z,5.10
2022-10-18T22:13:46.159Z,5.53
2022-10-18T22:16:15.233Z,4.43
2022-10-18T22:18:43.140Z,4.90
2022-10-18T22:21:11.792Z,4.70
2022-10-18T22:23:42.376Z,5.35
2022-10-18T22:26:11.237Z,4.93
2022-10-18T22:28:39.294Z,4.93
2022-10-18T22:31:07.245Z,4.95
2022-10-18T22:36:08.041Z,4.60
2022-10-18T22:38:35.987Z,4.78
2022-10-18T22:41:06.680Z,4.65
2022-10-18T22:43:34.652Z,4.50
2022-10-18T22:46:03.433Z,4.90
2022-10-18T22:48:31.416Z,5.18
2022-10-18T22:50:59.286Z,4.65
2022-10-18T22:53:27.218Z,4.80
2022-10-18T22:55:55.192Z,5.00
2022-10-18T22:58:24.627Z,4.97
2022-10-18T23:00:52.515Z,5.10
2022-10-18T23:03:20.365Z,4.75
2022-10-18T23:05:48.387Z,5.38
2022-10-18T23:08:16.247Z,4.40
2022-10-18T23:10:44.197Z,4.65
2022-10-18T23:13:12.117Z,4.63
2022-10-18T23:15:41.333Z,4.63
2022-10-18T23:18:09.462Z,4.65
2022-10-18T23:20:37.359Z,4.60
2022-10-18T23:23:05.239Z,4.70
2022-10-18T23:25:36.386Z,5.00
2022-10-18T23:28:04.263Z,4.22
2022-10-18T23:30:32.141Z,4.22
2022-10-18T23:33:01.376Z,4.97
2022-10-18T23:35:30.339Z,4.47
2022-10-18T23:37:58.297Z,4.72
2022-10-18T23:40:26.195Z,4.47
2022-10-18T23:42:54.105Z,4.85
2022-10-18T23:45:21.960Z,4.60
2022-10-18T23:47:49.950Z,4.50
2022-10-18T23:50:19.352Z,4.82
2022-10-18T23:52:47.205Z,4.63
2022-10-18T23:55:15.234Z,4.30
2022-10-18T23:57:43.094Z,4.25
